createdAt,value
2019-04-07T00:01:32.959Z,71.37
2019-04-07T00:04:02.310Z,73.93
2019-04-07T00:06:31.822Z,70.07
2019-04-07T00:09:01.717Z,74.23
2019-04-07T00:11:31.338Z,69.73
2019-04-07T00:14:00.801Z,71.10
2019-04-07T00:16:30.895Z,79.53
2019-04-07T00:19:00.305Z,70.97
2019-04-07T00:21:30.175Z,68.50
2019-04-07T00:24:01.816Z,66.60
2019-04-07T00:26:31.170Z,74.20
2019-04-07T00:29:01.580Z,68.30
2019-04-07T00:31:31.239Z,66.17
2019-04-07T00:34:00.816Z,71.57
2019-04-07T00:36:30.211Z,80.70
2019-04-07T00:38:59.531Z,71.50
2019-04-07T00:41:28.869Z,69.20
2019-04-07T00:44:00.035Z,75.27
2019-04-07T00:46:29.586Z,65.83
2019-04-07T00:48:59.419Z,65.90
2019-04-07T00:51:28.901Z,70.53
2019-04-07T00:53:58.280Z,73.70
2019-04-07T00:56:27.973Z,74.73
2019-04-07T00:58:58.002Z,65.17
2019-04-07T01:01:27.343Z,66.90
2019-04-07T01:03:56.883Z,69.07
2019-04-07T01:06:26.873Z,71.20
2019-04-07T01:08:56.877Z,64.83
2019-04-07T01:11:26.715Z,70.77
2019-04-07T01:13:56.192Z,65.60
2019-04-07T01:16:26.221Z,66.10
2019-04-07T01:18:55.640Z,62.73
2019-04-07T01:21:25.183Z,65.83
2019-04-07T01:23:54.541Z,61.33
2019-04-07T01:26:23.917Z,60.33
2019-04-07T01:28:54.469Z,70.20
2019-04-07T01:31:24.325Z,57.53
2019-04-07T01:33:54.295Z,65.10
2019-04-07T01:36:23.817Z,59.83
2019-04-07T01:38:53.320Z,62.93
2019-04-07T01:41:29.967Z,62.10
2019-04-07T01:44:00.948Z,57.77
2019-04-07T01:46:44.027Z,65.43
2019-04-07T01:49:30.253Z,61.97
2019-04-07T01:52:01.882Z,60.63
2019-04-07T01:54:33.029Z,62.00
2019-04-07T01:57:10.270Z,62.20
2019-04-07T01:59:41.776Z,64.83
2019-04-07T02:02:29.163Z,65.97
2019-04-07T02:05:06.751Z,63.20
2019-04-07T02:07:50.070Z,65.67
2019-04-07T02:10:24.160Z,63.00
2019-04-07T02:12:55.634Z,58.63
2019-04-07T02:15:26.760Z,57.97
2019-04-07T02:17:58.205Z,59.37
2019-04-07T02:20:58.976Z,60.47
2019-04-07T02:23:47.184Z,52.63
2019-04-07T02:26:21.477Z,56.77
2019-04-07T02:28:52.642Z,57.37
2019-04-07T02:31:23.618Z,58.30
2019-04-07T02:33:54.589Z,60.23
2019-04-07T02:36:31.977Z,61.40
2019-04-07T02:39:18.331Z,54.50
2019-04-07T02:42:05.778Z,57.93
2019-04-07T02:44:42.914Z,56.50
2019-04-07T02:47:31.190Z,60.87
2019-04-07T02:50:05.220Z,57.20
2019-04-07T02:52:36.942Z,56.87
2019-04-07T02:55:14.356Z,59.17
2019-04-07T02:57:54.522Z,59.80
2019-04-07T03:00:25.507Z,60.30
2019-04-07T03:03:05.430Z,57.37
2019-04-07T03:05:36.415Z,62.03
2019-04-07T03:08:23.829Z,58.00
2019-04-07T03:10:58.678Z,63.73
2019-04-07T03:13:30.298Z,53.97
2019-04-07T03:16:04.509Z,57.60
2019-04-07T03:18:40.951Z,58.37
2019-04-07T03:21:17.948Z,58.00
2019-04-07T03:24:01.664Z,50.37
2019-04-07T03:26:32.657Z,55.33
2019-04-07T03:29:03.716Z,58.97
2019-04-07T03:31:45.975Z,59.13
2019-04-07T03:34:31.348Z,55.73
2019-04-07T03:37:18.388Z,56.57
2019-04-07T03:39:33.893Z,56.73
2019-04-07T03:42:10.811Z,57.93
2019-04-07T03:44:44.850Z,51.60
2019-04-07T03:47:32.065Z,56.00
2019-04-07T03:50:19.260Z,52.47
2019-04-07T03:52:54.377Z,52.03
2019-04-07T03:55:31.560Z,55.90
2019-04-07T03:58:05.478Z,53.33
2019-04-07T04:01:10.444Z,56.50
2019-04-07T04:03:47.842Z,56.83
2019-04-07T04:06:21.861Z,56.00
2019-04-07T04:08:53.068Z,56.10
2019-04-07T04:11:40.647Z,60.00
2019-04-07T04:14:18.363Z,56.00
2019-04-07T04:16:49.483Z,57.90
2019-04-07T04:19:19.147Z,57.97
2019-04-07T04:21:48.497Z,54.60
2019-04-07T04:24:18.563Z,56.83
2019-04-07T04:26:48.170Z,53.27
2019-04-07T04:29:17.546Z,52.33
2019-04-07T04:31:47.403Z,56.80
2019-04-07T04:34:17.339Z,55.47
2019-04-07T04:36:47.877Z,54.60
2019-04-07T04:39:19.702Z,60.70
2019-04-07T04:41:49.069Z,64.60
2019-04-07T04:44:18.751Z,63.83
2019-04-07T04:46:48.632Z,59.57
2019-04-07T04:49:19.703Z,54.67
2019-04-07T04:51:50.246Z,57.83
2019-04-07T04:54:19.582Z,60.50
2019-04-07T04:56:48.942Z,61.60
2019-04-07T04:59:18.334Z,55.43
2019-04-07T05:01:47.819Z,58.53
2019-04-07T05:04:17.459Z,59.40
2019-04-07T05:06:47.748Z,60.03
2019-04-07T05:09:18.028Z,59.27
2019-04-07T05:11:47.479Z,59.47
2019-04-07T05:14:16.834Z,58.57
2019-04-07T05:16:46.178Z,60.70
2019-04-07T05:19:15.520Z,64.07
2019-04-07T05:21:44.874Z,62.03
2019-04-07T05:24:14.698Z,57.90
2019-04-07T05:26:44.061Z,57.43
2019-04-07T05:29:13.751Z,59.20
2019-04-07T05:31:43.870Z,56.10
2019-04-07T05:34:16.764Z,59.20
2019-04-07T05:36:44.336Z,55.97
2019-04-07T05:39:13.679Z,56.80
2019-04-07T05:41:43.828Z,55.33
2019-04-07T05:44:13.541Z,57.23
2019-04-07T05:46:43.468Z,59.23
2019-04-07T05:49:15.710Z,55.37
2019-04-07T05:51:44.617Z,53.17
2019-04-07T05:54:16.918Z,54.20
2019-04-07T05:56:45.122Z,54.47
2019-04-07T05:59:14.784Z,58.10
2019-04-07T06:01:45.557Z,55.93
2019-04-07T06:04:18.310Z,53.77
2019-04-07T06:06:46.358Z,47.73
2019-04-07T06:09:19.770Z,55.30
2019-04-07T06:11:46.967Z,59.37
2019-04-07T06:14:17.226Z,56.93
2019-04-07T06:16:46.922Z,56.87
2019-04-07T06:19:17.029Z,56.33
2019-04-07T06:21:48.745Z,56.80
2019-04-07T06:24:18.091Z,58.80
2019-04-07T06:26:49.944Z,54.30
2019-04-07T06:29:20.021Z,59.03
2019-04-07T06:31:49.567Z,60.70
2019-04-07T06:34:18.984Z,62.97
2019-04-07T06:36:53.552Z,54.83
2019-04-07T06:39:20.085Z,55.80
2019-04-07T06:41:49.505Z,53.03
2019-04-07T06:44:22.187Z,59.90
2019-04-07T06:46:51.585Z,60.63
2019-04-07T06:49:28.408Z,59.20
2019-04-07T06:52:10.710Z,59.20
2019-04-07T06:54:50.070Z,53.17
2019-04-07T06:57:23.349Z,53.03
2019-04-07T07:00:03.300Z,56.80
2019-04-07T07:02:46.285Z,51.43
2019-04-07T07:05:26.748Z,47.00
2019-04-07T07:07:57.811Z,51.53
2019-04-07T07:10:34.827Z,51.77
2019-04-07T07:13:28.663Z,51.23
2019-04-07T07:15:49.408Z,54.90
2019-04-07T07:18:22.914Z,48.37
2019-04-07T07:21:08.171Z,48.93
2019-04-07T07:23:47.666Z,50.57
2019-04-07T07:26:13.445Z,45.00
2019-04-07T07:28:44.586Z,47.90
2019-04-07T07:31:14.309Z,49.87
2019-04-07T07:33:44.689Z,46.23
2019-04-07T07:36:17.301Z,51.50
2019-04-07T07:38:55.431Z,43.53
2019-04-07T07:41:19.141Z,45.30
2019-04-07T07:43:48.142Z,46.83
2019-04-07T07:46:20.555Z,46.83
2019-04-07T07:48:48.654Z,44.87
2019-04-07T07:51:18.008Z,47.10
2019-04-07T07:53:47.350Z,51.43
2019-04-07T07:56:17.002Z,48.70
2019-04-07T07:58:47.208Z,55.33
2019-04-07T08:01:17.820Z,46.33
2019-04-07T08:03:51.699Z,46.67
2019-04-07T08:06:19.370Z,60.90
2019-04-07T08:08:48.877Z,52.07
2019-04-07T08:11:18.766Z,44.53
2019-04-07T08:13:48.141Z,72.97
2019-04-07T08:16:17.520Z,45.23
2019-04-07T08:18:47.387Z,45.07
2019-04-07T08:21:19.056Z,43.63
2019-04-07T08:23:48.195Z,42.03
2019-04-07T08:26:18.238Z,40.13
2019-04-07T08:28:48.186Z,38.50
2019-04-07T08:31:20.532Z,38.27
2019-04-07T08:33:51.259Z,37.10
2019-04-07T08:36:19.965Z,41.30
2019-04-07T08:38:51.795Z,37.13
2019-04-07T08:41:20.492Z,34.47
2019-04-07T08:43:53.272Z,34.10
2019-04-07T08:46:21.910Z,30.77
2019-04-07T08:48:54.296Z,29.40
2019-04-07T08:51:24.220Z,32.57
2019-04-07T08:53:54.835Z,31.17
2019-04-07T08:56:26.469Z,31.20
2019-04-07T08:58:55.396Z,29.83
2019-04-07T09:01:25.203Z,31.10
2019-04-07T09:03:56.073Z,27.70
2019-04-07T09:06:28.458Z,27.10
2019-04-07T09:08:56.527Z,30.27
2019-04-07T09:11:28.303Z,31.90
2019-04-07T09:13:58.192Z,28.87
2019-04-07T09:16:30.195Z,29.30
2019-04-07T09:19:13.730Z,29.50
2019-04-07T09:21:50.266Z,26.20
2019-04-07T09:24:20.229Z,27.67
2019-04-07T09:27:09.091Z,27.93
2019-04-07T09:29:58.944Z,25.80
2019-04-07T09:32:33.428Z,27.60
2019-04-07T09:35:07.053Z,26.87
2019-04-07T09:37:54.893Z,26.97
2019-04-07T09:40:28.890Z,26.70
2019-04-07T09:43:01.075Z,25.73
2019-04-07T09:45:32.437Z,28.30
2019-04-07T09:48:04.074Z,26.57
2019-04-07T09:50:41.947Z,29.67
2019-04-07T09:53:25.195Z,24.40
2019-04-07T09:56:12.949Z,24.77
2019-04-07T09:58:50.301Z,24.85
2019-04-07T10:01:36.882Z,21.95
2019-04-07T10:04:24.150Z,23.57
2019-04-07T10:07:15.327Z,24.72
2019-04-07T10:10:10.766Z,22.07
2019-04-07T10:12:37.064Z,21.27
2019-04-07T10:15:20.176Z,22.45
2019-04-07T10:18:00.531Z,24.12
2019-04-07T10:20:34.190Z,21.57
2019-04-07T10:23:15.050Z,20.70
2019-04-07T10:26:02.752Z,24.27
2019-04-07T10:28:33.755Z,23.10
2019-04-07T10:31:11.338Z,23.95
2019-04-07T10:33:54.697Z,19.62
2019-04-07T10:36:43.973Z,19.45
2019-04-07T10:39:27.550Z,18.42
2019-04-07T10:42:07.579Z,21.37
2019-04-07T10:44:38.580Z,24.00
2019-04-07T10:47:09.643Z,22.50
2019-04-07T10:49:40.672Z,20.88
2019-04-07T10:52:14.816Z,16.48
2019-04-07T10:54:45.841Z,16.07
2019-04-07T10:57:34.421Z,17.30
2019-04-07T11:00:12.162Z,15.63
2019-04-07T11:02:52.811Z,14.38
2019-04-07T11:05:24.791Z,16.52
2019-04-07T11:07:55.907Z,16.67
2019-04-07T11:10:34.286Z,13.38
2019-04-07T11:13:03.113Z,13.80
2019-04-07T11:15:49.827Z,12.20
2019-04-07T11:18:21.015Z,15.85
2019-04-07T11:21:10.753Z,14.75
2019-04-07T11:23:47.672Z,12.85
2019-04-07T11:26:18.664Z,13.48
2019-04-07T11:28:59.387Z,12.47
2019-04-07T11:31:32.171Z,14.05
2019-04-07T11:34:06.258Z,12.07
2019-04-07T11:36:40.718Z,12.10
2019-04-07T11:39:21.540Z,11.12
2019-04-07T11:41:52.766Z,12.28
2019-04-07T11:44:23.794Z,12.98
2019-04-07T11:47:09.886Z,12.18
2019-04-07T11:49:45.036Z,13.38
2019-04-07T11:52:23.509Z,12.73
2019-04-07T11:55:10.248Z,11.93
2019-04-07T11:57:44.764Z,12.33
2019-04-07T12:00:17.176Z,13.55
2019-04-07T12:02:51.911Z,12.05
2019-04-07T12:05:26.816Z,13.03
2019-04-07T12:08:14.072Z,11.33
2019-04-07T12:11:04.914Z,9.85
2019-04-07T12:13:44.872Z,11.97
2019-04-07T12:16:22.001Z,10.23
2019-04-07T12:18:53.682Z,11.28
2019-04-07T12:21:39.129Z,12.95
2019-04-07T12:24:16.327Z,13.15
2019-04-07T12:26:47.369Z,13.43
2019-04-07T12:29:24.460Z,12.28
2019-04-07T12:31:58.184Z,12.93
2019-04-07T12:34:48.881Z,12.30
2019-04-07T12:37:39.658Z,11.43
2019-04-07T12:40:22.444Z,11.68
2019-04-07T12:42:52.379Z,12.10
2019-04-07T12:45:36.104Z,13.58
2019-04-07T12:48:25.858Z,12.88
2019-04-07T12:51:13.701Z,11.50
2019-04-07T12:53:47.903Z,12.43
2019-04-07T12:56:18.985Z,10.32
2019-04-07T12:59:08.018Z,10.10
2019-04-07T13:01:41.364Z,12.20
2019-04-07T13:04:17.913Z,13.08
2019-04-07T13:06:52.365Z,13.22
2019-04-07T13:09:39.217Z,13.75
2019-04-07T13:12:28.974Z,11.22
2019-04-07T13:15:03.418Z,13.13
2019-04-07T13:17:37.585Z,10.05
2019-04-07T13:20:10.630Z,11.80
2019-04-07T13:22:53.922Z,11.83
2019-04-07T13:25:25.164Z,12.47
2019-04-07T13:27:58.895Z,11.48
2019-04-07T13:30:39.147Z,11.63
2019-04-07T13:33:29.448Z,9.38
2019-04-07T13:36:17.130Z,11.83
2019-04-07T13:38:54.499Z,9.80
2019-04-07T13:41:38.722Z,11.78
2019-04-07T13:44:07.215Z,13.35
2019-04-07T13:46:53.290Z,12.68
2019-04-07T13:49:41.329Z,13.05
2019-04-07T13:52:22.207Z,9.93
2019-04-07T13:55:05.160Z,10.72
2019-04-07T13:57:54.853Z,12.60
2019-04-07T14:00:24.042Z,12.03
2019-04-07T14:02:55.076Z,12.60
2019-04-07T14:05:27.086Z,12.13
2019-04-07T14:08:04.560Z,10.63
2019-04-07T14:10:51.628Z,13.35
2019-04-07T14:13:22.783Z,9.53
2019-04-07T14:15:59.722Z,10.48
2019-04-07T14:18:45.067Z,12.98
2019-04-07T14:21:32.441Z,9.85
2019-04-07T14:24:21.855Z,10.63
2019-04-07T14:26:53.131Z,15.20
2019-04-07T14:29:36.945Z,12.85
2019-04-07T14:32:26.323Z,11.22
2019-04-07T14:34:57.636Z,10.55
2019-04-07T14:37:28.638Z,12.70
2019-04-07T14:40:03.641Z,10.65
2019-04-07T14:42:35.213Z,12.15
2019-04-07T14:45:14.504Z,10.70
2019-04-07T14:47:46.310Z,10.15
2019-04-07T14:50:20.061Z,11.57
2019-04-07T14:52:54.532Z,9.98
2019-04-07T14:55:41.945Z,11.08
2019-04-07T14:58:29.175Z,10.05
2019-04-07T15:01:18.167Z,11.80
2019-04-07T15:03:48.050Z,8.95
2019-04-07T15:06:17.426Z,8.98
2019-04-07T15:09:01.207Z,11.38
2019-04-07T15:11:39.389Z,13.40
2019-04-07T15:14:11.237Z,14.98
2019-04-07T15:16:39.899Z,10.95
2019-04-07T15:19:09.637Z,9.35
2019-04-07T15:21:40.098Z,8.55
2019-04-07T15:24:10.112Z,9.00
2019-04-07T15:26:40.092Z,7.97
2019-04-07T15:29:10.782Z,9.73
2019-04-07T15:31:40.592Z,7.78
2019-04-07T15:34:11.896Z,8.20
2019-04-07T15:36:41.455Z,9.38
2019-04-07T15:39:11.014Z,9.25
2019-04-07T15:41:42.506Z,10.45
2019-04-07T15:44:14.119Z,11.18
2019-04-07T15:46:43.781Z,13.38
2019-04-07T15:49:13.138Z,10.53
2019-04-07T15:51:43.201Z,12.43
2019-04-07T15:54:13.459Z,11.28
2019-04-07T15:56:45.422Z,14.87
2019-04-07T15:59:14.706Z,12.40
2019-04-07T16:01:44.949Z,10.75
2019-04-07T16:04:14.361Z,14.75
2019-04-07T16:06:47.114Z,14.07
2019-04-07T16:09:29.643Z,13.00
2019-04-07T16:11:47.400Z,11.65
2019-04-07T16:14:17.657Z,13.15
2019-04-07T16:16:47.304Z,13.78
2019-04-07T16:19:21.964Z,13.58
2019-04-07T16:21:49.392Z,13.48
2019-04-07T16:24:21.451Z,10.90
2019-04-07T16:26:49.861Z,14.85
2019-04-07T16:29:20.331Z,13.03
2019-04-07T16:31:51.742Z,13.50
2019-04-07T16:34:21.421Z,11.15
2019-04-07T16:36:52.220Z,12.25
2019-04-07T16:39:21.837Z,10.05
2019-04-07T16:41:51.198Z,10.82
2019-04-07T16:44:20.572Z,12.18
2019-04-07T16:46:54.370Z,10.60
2019-04-07T16:49:21.648Z,10.63
2019-04-07T16:51:51.567Z,12.45
2019-04-07T16:54:20.998Z,11.38
2019-04-07T16:56:54.732Z,10.25
2019-04-07T16:59:22.035Z,10.88
2019-04-07T17:01:51.473Z,10.15
2019-04-07T17:04:21.222Z,11.05
2019-04-07T17:07:00.271Z,11.15
2019-04-07T17:09:25.067Z,11.10
2019-04-07T17:11:53.609Z,11.85
2019-04-07T17:14:23.693Z,11.03
2019-04-07T17:16:53.657Z,11.97
2019-04-07T17:19:25.656Z,9.73
2019-04-07T17:21:55.393Z,9.33
2019-04-07T17:24:27.207Z,9.23
2019-04-07T17:26:56.297Z,10.93
2019-04-07T17:29:28.369Z,9.60
2019-04-07T17:32:01.195Z,12.28
2019-04-07T17:34:28.217Z,8.68
2019-04-07T17:36:57.721Z,10.03
2019-04-07T17:39:28.751Z,9.30
2019-04-07T17:41:59.456Z,10.08
2019-04-07T17:44:45.499Z,8.95
2019-04-07T17:47:36.454Z,10.40
2019-04-07T17:50:30.445Z,9.95
2019-04-07T17:53:05.591Z,10.03
2019-04-07T17:55:42.138Z,12.58
2019-04-07T17:58:18.997Z,8.58
2019-04-07T18:00:59.738Z,9.65
2019-04-07T18:03:34.647Z,11.15
2019-04-07T18:06:22.435Z,15.30
2019-04-07T18:09:03.956Z,11.57
2019-04-07T18:11:28.963Z,14.13
2019-04-07T18:14:07.892Z,10.08
2019-04-07T18:16:55.389Z,9.18
2019-04-07T18:19:43.112Z,14.10
2019-04-07T18:22:24.761Z,12.07
2019-04-07T18:25:01.964Z,10.95
2019-04-07T18:27:38.301Z,11.25
2019-04-07T18:30:10.454Z,12.28
2019-04-07T18:32:47.600Z,10.35
2019-04-07T18:35:26.505Z,12.88
2019-04-07T18:38:13.335Z,15.50
2019-04-07T18:41:01.678Z,13.85
2019-04-07T18:43:50.730Z,11.83
2019-04-07T18:46:16.846Z,12.15
2019-04-07T18:48:47.861Z,15.53
2019-04-07T18:51:18.813Z,14.90
2019-04-07T18:53:53.226Z,11.35
2019-04-07T18:56:33.283Z,10.20
2019-04-07T18:59:13.323Z,11.50
2019-04-07T19:01:50.023Z,11.80
2019-04-07T19:04:33.234Z,16.43
2019-04-07T19:07:04.297Z,16.07
2019-04-07T19:09:35.748Z,10.73
2019-04-07T19:12:16.715Z,11.87
2019-04-07T19:15:02.370Z,11.37
2019-04-07T19:17:36.782Z,13.23
2019-04-07T19:20:12.990Z,19.23
2019-04-07T19:22:51.330Z,12.90
2019-04-07T19:25:22.341Z,11.53
2019-04-07T19:28:00.996Z,13.67
2019-04-07T19:30:51.627Z,11.73
2019-04-07T19:33:26.856Z,13.83
2019-04-07T19:36:00.952Z,14.20
2019-04-07T19:38:31.955Z,16.83
2019-04-07T19:41:18.716Z,13.63
2019-04-07T19:43:50.293Z,11.90
2019-04-07T19:46:37.193Z,12.20
2019-04-07T19:49:13.096Z,11.37
2019-04-07T19:52:00.633Z,17.83
2019-04-07T19:54:42.075Z,12.87
2019-04-07T19:57:31.221Z,11.63
2019-04-07T20:00:10.979Z,17.03
2019-04-07T20:02:57.373Z,14.70
2019-04-07T20:05:28.478Z,14.60
2019-04-07T20:08:05.734Z,11.53
2019-04-07T20:10:42.894Z,14.47
2019-04-07T20:13:34.406Z,12.60
2019-04-07T20:16:05.284Z,14.97
2019-04-07T20:18:58.177Z,12.87
2019-04-07T20:21:39.096Z,15.00
2019-04-07T20:24:07.387Z,15.13
2019-04-07T20:26:38.400Z,14.77
2019-04-07T20:29:12.178Z,15.07
2019-04-07T20:31:58.231Z,14.50
2019-04-07T20:34:29.675Z,40.27
2019-04-07T20:37:07.193Z,27.73
2019-04-07T20:39:41.560Z,19.67
2019-04-07T20:42:15.874Z,16.93
2019-04-07T20:45:01.842Z,14.07
2019-04-07T20:47:42.437Z,16.10
2019-04-07T20:50:22.674Z,13.17
2019-04-07T20:53:16.751Z,18.20
2019-04-07T20:55:50.769Z,12.53
2019-04-07T20:58:46.365Z,12.83
2019-04-07T21:01:20.809Z,12.00
2019-04-07T21:03:51.638Z,12.30
2019-04-07T21:06:38.353Z,12.67
2019-04-07T21:09:22.475Z,11.40
2019-04-07T21:12:02.981Z,30.23
2019-04-07T21:14:50.375Z,20.73
2019-04-07T21:17:21.835Z,31.37
2019-04-07T21:20:10.765Z,22.27
2019-04-07T21:23:00.669Z,17.13
2019-04-07T21:25:41.682Z,10.97
2019-04-07T21:28:24.699Z,10.70
2019-04-07T21:31:01.452Z,17.93
2019-04-07T21:33:49.627Z,18.37
2019-04-07T21:36:32.500Z,12.20
2019-04-07T21:39:21.662Z,12.67
2019-04-07T21:42:10.301Z,11.60
2019-04-07T21:44:59.891Z,13.57
2019-04-07T21:47:31.813Z,11.63
2019-04-07T21:50:12.052Z,13.53
2019-04-07T21:52:46.174Z,12.80
2019-04-07T21:55:17.155Z,12.77
2019-04-07T21:58:00.924Z,14.90
2019-04-07T22:00:32.935Z,16.77
2019-04-07T22:03:13.418Z,14.37
2019-04-07T22:05:57.850Z,14.00
2019-04-07T22:08:27.265Z,13.93
2019-04-07T22:10:57.360Z,15.53
2019-04-07T22:13:26.729Z,12.37
2019-04-07T22:16:00.735Z,14.17
2019-04-07T22:18:27.240Z,17.00
2019-04-07T22:20:57.036Z,16.13
2019-04-07T22:23:29.516Z,12.57
2019-04-07T22:25:57.511Z,13.33
2019-04-07T22:28:28.490Z,13.67
2019-04-07T22:30:57.935Z,11.40
2019-04-07T22:33:30.763Z,14.87
2019-04-07T22:35:58.408Z,14.40
2019-04-07T22:38:27.756Z,14.80
2019-04-07T22:40:57.146Z,19.50
2019-04-07T22:43:26.483Z,15.23
2019-04-07T22:46:07.103Z,14.53
2019-04-07T22:48:28.169Z,16.47
2019-04-07T22:50:58.880Z,14.80
2019-04-07T22:53:30.125Z,14.37
2019-04-07T22:55:59.792Z,14.47
2019-04-07T22:58:29.837Z,16.43
2019-04-07T23:00:59.496Z,16.80
2019-04-07T23:03:29.368Z,15.93
2019-04-07T23:05:58.862Z,13.63
2019-04-07T23:08:28.529Z,14.77
2019-04-07T23:10:58.076Z,16.87
2019-04-07T23:13:28.001Z,15.53
2019-04-07T23:16:10.007Z,16.43
2019-04-07T23:18:28.450Z,19.47
2019-04-07T23:20:57.952Z,18.93
2019-04-07T23:23:28.129Z,13.27
2019-04-07T23:25:57.768Z,14.80
2019-04-07T23:28:27.258Z,14.77
2019-04-07T23:30:56.947Z,30.03
2019-04-07T23:33:26.402Z,17.97
2019-04-07T23:35:55.756Z,17.77
2019-04-07T23:38:26.080Z,13.57
2019-04-07T23:40:55.683Z,13.50
2019-04-07T23:43:25.063Z,13.67
2019-04-07T23:45:54.421Z,16.60
2019-04-07T23:48:24.295Z,15.60
2019-04-07T23:50:54.053Z,14.97
2019-04-07T23:54:10.956Z,16.47
2019-04-07T23:56:43.621Z,17.77
2019-04-07T23:59:14.605Z,14.43
